Time;durP1;ratioP1;P1;durP2;ratioP2;P2;SDS_P1;SDS_P2;PMS_P1;PMS_P2;Temp;Humidity;BMP_temperature;BMP_pressure;BME280_temperature;BME280_humidity;BME280_pressure;Samples;Min_cycle;Max_cycle;Signal;HPM_P1;HPM_P2
2022/05/04 00:00:21;;;;;;;13.02;5.65;;;;;;;;;;5084048;28;20140;-68
2022/05/04 00:02:47;;;;;;;15.40;5.18;;;;;;;;;;5084179;28;20024;-69
2022/05/04 00:05:13;;;;;;;16.27;5.25;;;;;;;;;;5080074;28;20016;-68
2022/05/04 00:07:39;;;;;;;15.20;5.47;;;;;;;;;;5084200;28;20082;-68
2022/05/04 00:10:06;;;;;;;16.45;5.47;;;;;;;;;;5086472;28;20028;-69
2022/05/04 00:12:33;;;;;;;19.83;5.60;;;;;;;;;;5081324;28;20039;-68
2022/05/04 00:14:59;;;;;;;20.98;6.75;;;;;;;;;;5082195;28;20119;-68
2022/05/04 00:17:25;;;;;;;13.32;5.15;;;;;;;;;;5086480;28;20500;-68
2022/05/04 00:19:51;;;;;;;14.60;5.45;;;;;;;;;;5082979;28;20489;-69
2022/05/04 00:22:21;;;;;;;13.23;6.18;;;;;;;;;;5085946;28;20032;-69
2022/05/04 00:24:47;;;;;;;17.00;5.95;;;;;;;;;;5083208;28;20032;-69
2022/05/04 00:27:15;;;;;;;21.38;6.60;;;;;;;;;;5086570;28;20020;-68
2022/05/04 00:29:46;;;;;;;13.60;5.68;;;;;;;;;;5084233;28;20050;-68
2022/05/04 00:32:12;;;;;;;14.20;6.53;;;;;;;;;;5083486;28;20327;-69
2022/05/04 00:34:39;;;;;;;24.00;6.22;;;;;;;;;;5080895;28;20100;-69
2022/05/04 00:37:05;;;;;;;13.25;6.25;;;;;;;;;;5080900;28;20031;-68
2022/05/04 00:39:32;;;;;;;22.65;5.97;;;;;;;;;;5083357;28;20025;-69
2022/05/04 00:42:17;;;;;;;13.82;6.30;;;;;;;;;;5083318;28;20163;-69
2022/05/04 00:44:45;;;;;;;18.23;6.15;;;;;;;;;;5081021;28;20036;-68
2022/05/04 00:47:11;;;;;;;15.32;6.60;;;;;;;;;;5085843;28;20024;-69
2022/05/04 00:49:37;;;;;;;20.92;8.45;;;;;;;;;;5085014;28;20081;-68
2022/05/04 00:52:04;;;;;;;15.95;6.07;;;;;;;;;;5084391;28;20032;-67
2022/05/04 00:54:31;;;;;;;20.48;6.50;;;;;;;;;;5081770;28;20458;-69
2022/05/04 00:56:57;;;;;;;19.23;6.70;;;;;;;;;;5084869;28;20062;-68
2022/05/04 00:59:23;;;;;;;16.65;8.27;;;;;;;;;;5081465;28;20043;-68
2022/05/04 01:01:49;;;;;;;19.38;6.72;;;;;;;;;;5074971;28;20047;-68
2022/05/04 01:04:16;;;;;;;17.20;6.50;;;;;;;;;;5082032;28;21366;-68
2022/05/04 01:06:42;;;;;;;24.80;7.50;;;;;;;;;;5085765;28;20123;-69
2022/05/04 01:09:08;;;;;;;20.52;6.57;;;;;;;;;;5084086;28;20028;-68
2022/05/04 01:11:34;;;;;;;19.80;6.63;;;;;;;;;;5083132;28;20044;-68
2022/05/04 01:14:02;;;;;;;21.23;6.93;;;;;;;;;;5077385;28;20092;-68
2022/05/04 01:16:28;;;;;;;18.00;6.50;;;;;;;;;;5083416;28;20028;-68
2022/05/04 01:18:54;;;;;;;18.85;6.50;;;;;;;;;;5082278;28;20089;-68
2022/05/04 01:21:20;;;;;;;19.25;7.25;;;;;;;;;;5083326;28;20063;-69
2022/05/04 01:23:47;;;;;;;16.83;6.30;;;;;;;;;;5087553;28;20060;-68
2022/05/04 01:26:16;;;;;;;16.58;7.38;;;;;;;;;;5088811;28;20048;-70
2022/05/04 01:28:43;;;;;;;13.65;6.38;;;;;;;;;;5089875;28;20028;-70
2022/05/04 01:31:09;;;;;;;17.17;6.93;;;;;;;;;;5085421;28;20077;-68
2022/05/04 01:33:35;;;;;;;18.90;6.63;;;;;;;;;;5085728;28;20426;-69
2022/05/04 01:36:01;;;;;;;17.15;6.70;;;;;;;;;;5089196;28;20483;-69
2022/05/04 01:38:27;;;;;;;17.58;7.38;;;;;;;;;;5088540;28;20027;-69
2022/05/04 01:40:53;;;;;;;19.25;6.93;;;;;;;;;;5084423;28;20146;-70
2022/05/04 01:43:20;;;;;;;19.23;7.05;;;;;;;;;;5087058;28;20024;-69
2022/05/04 01:45:46;;;;;;;14.18;6.70;;;;;;;;;;5085155;28;20043;-69
2022/05/04 01:48:12;;;;;;;17.23;6.60;;;;;;;;;;5086937;28;20035;-71
2022/05/04 01:50:38;;;;;;;18.92;7.47;;;;;;;;;;5085633;28;20046;-69
2022/05/04 01:53:04;;;;;;;19.00;6.65;;;;;;;;;;5086194;28;20499;-69
2022/05/04 01:55:33;;;;;;;19.88;6.45;;;;;;;;;;5081991;28;20032;-68
2022/05/04 01:57:59;;;;;;;18.42;6.80;;;;;;;;;;5088721;28;20027;-69
2022/05/04 02:00:25;;;;;;;15.32;6.60;;;;;;;;;;5084905;28;20117;-69
2022/05/04 02:02:51;;;;;;;24.90;6.97;;;;;;;;;;5069266;28;20181;-70
2022/05/04 02:05:18;;;;;;;19.85;6.47;;;;;;;;;;5085483;28;20031;-68
2022/05/04 02:07:44;;;;;;;18.70;6.53;;;;;;;;;;5086302;28;20540;-68
2022/05/04 02:10:29;;;;;;;21.48;6.13;;;;;;;;;;5087580;28;20127;-69
2022/05/04 02:12:55;;;;;;;15.60;5.85;;;;;;;;;;5087239;28;20028;-67
2022/05/04 02:15:21;;;;;;;16.38;5.68;;;;;;;;;;5085501;28;20037;-68
2022/05/04 02:17:47;;;;;;;18.52;5.88;;;;;;;;;;5085825;28;20027;-68
2022/05/04 02:20:14;;;;;;;19.15;6.90;;;;;;;;;;5085909;28;20492;-69
2022/05/04 02:22:40;;;;;;;20.15;6.30;;;;;;;;;;5086979;28;20130;-68
2022/05/04 02:25:06;;;;;;;21.65;6.72;;;;;;;;;;5086928;28;20028;-68
2022/05/04 02:27:32;;;;;;;18.85;6.72;;;;;;;;;;5082468;28;20035;-69
2022/05/04 02:29:58;;;;;;;21.85;8.15;;;;;;;;;;5083113;28;20029;-68
2022/05/04 02:32:25;;;;;;;18.25;6.32;;;;;;;;;;5069289;28;20477;-69
2022/05/04 02:40:20;;;;;;;24.67;7.50;;;;;;;;;;5085610;28;20059;-67
2022/05/04 02:42:47;;;;;;;20.55;6.97;;;;;;;;;;5087508;28;20469;-69
2022/05/04 02:45:14;;;;;;;16.35;8.05;;;;;;;;;;5086031;28;20024;-69
2022/05/04 02:47:40;;;;;;;21.45;7.68;;;;;;;;;;5086023;28;20060;-69
2022/05/04 02:50:07;;;;;;;23.17;7.20;;;;;;;;;;5086736;28;20497;-69
2022/05/04 02:52:33;;;;;;;24.20;8.18;;;;;;;;;;5086136;28;20055;-69
2022/05/04 02:54:59;;;;;;;20.05;6.97;;;;;;;;;;5085597;28;20044;-69
2022/05/04 02:57:25;;;;;;;18.80;6.97;;;;;;;;;;5082767;28;20105;-69
2022/05/04 02:59:51;;;;;;;25.27;7.18;;;;;;;;;;5088116;28;20401;-68
2022/05/04 03:02:29;;;;;;;20.95;7.88;;;;;;;;;;5085377;28;20760;-68
2022/05/04 03:05:00;;;;;;;22.13;6.63;;;;;;;;;;5084790;28;20025;-68
2022/05/04 03:07:27;;;;;;;26.38;7.38;;;;;;;;;;5086134;28;20051;-69
2022/05/04 03:09:54;;;;;;;21.60;7.22;;;;;;;;;;5088591;28;20070;-69
2022/05/04 03:12:20;;;;;;;18.63;6.95;;;;;;;;;;5079839;28;20024;-69
2022/05/04 03:14:46;;;;;;;15.57;7.50;;;;;;;;;;5087524;28;20036;-69
2022/05/04 03:17:12;;;;;;;28.42;7.95;;;;;;;;;;5085151;28;20535;-68
2022/05/04 03:19:38;;;;;;;26.42;8.68;;;;;;;;;;5085773;28;20085;-69
2022/05/04 03:22:05;;;;;;;15.60;7.38;;;;;;;;;;5084520;28;20119;-68
2022/05/04 03:24:31;;;;;;;19.00;7.32;;;;;;;;;;5084509;28;20104;-69
2022/05/04 03:26:57;;;;;;;19.08;7.78;;;;;;;;;;5084185;28;20051;-68
2022/05/04 03:29:23;;;;;;;50.58;9.70;;;;;;;;;;5083173;28;20027;-69
2022/05/04 03:31:49;;;;;;;31.48;8.13;;;;;;;;;;5084835;28;20024;-69
2022/05/04 03:34:15;;;;;;;29.15;8.88;;;;;;;;;;5082653;28;20100;-69
2022/05/04 03:36:41;;;;;;;38.13;11.02;;;;;;;;;;5083832;28;20097;-68
2022/05/04 03:39:08;;;;;;;32.45;8.25;;;;;;;;;;5085498;28;20031;-68
2022/05/04 03:41:34;;;;;;;38.10;9.40;;;;;;;;;;5085939;28;20036;-68
2022/05/04 03:44:01;;;;;;;17.50;8.10;;;;;;;;;;5080899;28;20028;-68
2022/05/04 03:46:28;;;;;;;24.13;8.90;;;;;;;;;;5083283;28;20039;-68
2022/05/04 03:48:55;;;;;;;22.42;9.10;;;;;;;;;;5082177;28;20020;-69
2022/05/04 03:51:21;;;;;;;25.05;7.78;;;;;;;;;;5078109;28;20035;-69
2022/05/04 03:53:50;;;;;;;27.23;7.55;;;;;;;;;;5083082;28;20048;-69
2022/05/04 03:56:16;;;;;;;22.27;8.20;;;;;;;;;;5083700;28;20083;-69
2022/05/04 03:58:43;;;;;;;32.92;8.57;;;;;;;;;;5084750;28;20050;-68
2022/05/04 04:01:09;;;;;;;82.20;11.65;;;;;;;;;;5085636;28;20023;-69
2022/05/04 04:03:35;;;;;;;44.28;9.13;;;;;;;;;;5082206;28;20028;-69
2022/05/04 04:06:01;;;;;;;25.35;7.90;;;;;;;;;;5083573;28;20075;-69
2022/05/04 04:08:28;;;;;;;34.25;8.88;;;;;;;;;;5083613;28;20479;-69
2022/05/04 04:10:54;;;;;;;19.55;7.45;;;;;;;;;;5082390;28;20115;-69
2022/05/04 04:13:20;;;;;;;24.48;9.15;;;;;;;;;;5084467;28;20127;-69
2022/05/04 04:15:47;;;;;;;25.20;8.75;;;;;;;;;;5083675;28;20103;-68
2022/05/04 04:18:14;;;;;;;26.45;8.23;;;;;;;;;;5082697;28;20039;-69
2022/05/04 04:23:44;;;;;;;24.33;9.27;;;;;;;;;;5038723;28;20449;-69
2022/05/04 04:26:10;;;;;;;25.10;8.98;;;;;;;;;;5021939;28;20498;-68
2022/05/04 04:28:40;;;;;;;30.63;9.60;;;;;;;;;;5049102;28;20401;-68
2022/05/04 04:31:09;;;;;;;26.00;8.30;;;;;;;;;;5081066;28;20040;-69
2022/05/04 04:33:35;;;;;;;26.50;8.48;;;;;;;;;;5082078;28;20020;-68
2022/05/04 04:36:01;;;;;;;29.40;8.95;;;;;;;;;;5082760;28;20404;-69
2022/05/04 04:38:27;;;;;;;25.83;9.55;;;;;;;;;;5081624;28;20032;-68
2022/05/04 04:40:53;;;;;;;29.95;8.63;;;;;;;;;;5083683;28;20524;-69
2022/05/04 04:43:19;;;;;;;31.88;11.25;;;;;;;;;;5081494;28;20094;-69
2022/05/04 04:45:46;;;;;;;36.17;9.05;;;;;;;;;;5081881;28;20032;-68
2022/05/04 04:48:12;;;;;;;46.85;10.00;;;;;;;;;;5083894;28;20036;-69
2022/05/04 04:50:38;;;;;;;34.33;8.40;;;;;;;;;;5081867;28;20054;-69
2022/05/04 04:53:04;;;;;;;30.85;9.13;;;;;;;;;;5084496;28;20024;-69
2022/05/04 04:55:30;;;;;;;20.20;6.82;;;;;;;;;;5083061;28;20196;-69
2022/05/04 04:57:56;;;;;;;26.33;7.47;;;;;;;;;;5086404;28;20470;-70
2022/05/04 05:00:24;;;;;;;27.00;8.77;;;;;;;;;;5085889;28;20035;-67
2022/05/04 05:02:50;;;;;;;26.10;7.53;;;;;;;;;;5087563;28;20028;-69
2022/05/04 05:05:17;;;;;;;58.42;7.60;;;;;;;;;;5084036;28;20036;-70
2022/05/04 05:07:43;;;;;;;47.63;9.15;;;;;;;;;;5087409;28;20044;-69
2022/05/04 05:10:09;;;;;;;36.92;10.38;;;;;;;;;;5088055;28;20085;-67
2022/05/04 05:12:35;;;;;;;16.55;5.40;;;;;;;;;;5086994;28;20040;-68
2022/05/04 05:17:46;;;;;;;11.25;3.70;;;;;;;;;;5088529;28;20459;-69
2022/05/04 05:20:12;;;;;;;12.75;4.57;;;;;;;;;;5087267;28;20032;-69
2022/05/04 05:22:38;;;;;;;17.88;5.60;;;;;;;;;;5088446;28;20482;-69
2022/05/04 05:25:05;;;;;;;14.85;6.85;;;;;;;;;;5085732;28;20030;-69
2022/05/04 05:27:31;;;;;;;30.42;6.80;;;;;;;;;;5087883;28;20024;-69
2022/05/04 05:29:57;;;;;;;18.70;6.13;;;;;;;;;;5085867;28;20450;-69
2022/05/04 05:32:23;;;;;;;21.30;5.53;;;;;;;;;;5086467;28;20034;-68
2022/05/04 05:34:50;;;;;;;16.20;4.85;;;;;;;;;;5084278;28;20024;-69
2022/05/04 05:37:16;;;;;;;22.00;5.65;;;;;;;;;;5088741;28;20122;-68
2022/05/04 05:39:42;;;;;;;14.20;5.28;;;;;;;;;;5086099;28;20056;-67
2022/05/04 05:42:09;;;;;;;13.20;4.53;;;;;;;;;;5087152;28;20090;-67
2022/05/04 05:44:35;;;;;;;13.00;4.30;;;;;;;;;;5082357;28;20032;-68
2022/05/04 05:47:01;;;;;;;23.02;5.55;;;;;;;;;;5082109;28;20497;-68
2022/05/04 05:49:28;;;;;;;20.38;5.03;;;;;;;;;;5079157;28;20500;-68
2022/05/04 05:51:54;;;;;;;14.73;4.53;;;;;;;;;;5083017;28;20840;-69
2022/05/04 05:54:20;;;;;;;21.55;4.75;;;;;;;;;;5085694;28;20524;-69
2022/05/04 05:56:46;;;;;;;15.25;4.22;;;;;;;;;;5087875;28;20111;-69
2022/05/04 05:59:12;;;;;;;22.83;4.82;;;;;;;;;;5085304;28;20081;-68
2022/05/04 06:01:39;;;;;;;19.50;5.25;;;;;;;;;;5086450;28;20036;-68
2022/05/04 06:04:05;;;;;;;16.52;4.82;;;;;;;;;;5085949;28;20032;-68
2022/05/04 06:06:31;;;;;;;16.00;4.45;;;;;;;;;;5085174;28;20028;-68
2022/05/04 06:08:58;;;;;;;26.88;5.90;;;;;;;;;;5083225;28;20090;-69
2022/05/04 06:11:24;;;;;;;14.65;4.20;;;;;;;;;;5087001;28;20085;-67
2022/05/04 06:13:53;;;;;;;12.50;4.38;;;;;;;;;;5086559;28;20024;-69
2022/05/04 06:16:19;;;;;;;19.50;5.30;;;;;;;;;;5086820;28;20111;-69
2022/05/04 06:18:45;;;;;;;22.73;6.25;;;;;;;;;;5086200;28;20037;-68
2022/05/04 06:21:11;;;;;;;15.25;5.35;;;;;;;;;;5084198;28;20024;-68
2022/05/04 06:23:37;;;;;;;21.42;5.68;;;;;;;;;;5082614;28;20516;-68
2022/05/04 06:26:03;;;;;;;14.00;4.75;;;;;;;;;;5084719;28;20043;-68
2022/05/04 06:28:30;;;;;;;11.77;4.97;;;;;;;;;;5084484;28;20039;-68
2022/05/04 06:36:25;;;;;;;15.35;4.88;;;;;;;;;;5085014;28;20047;-68
2022/05/04 06:38:51;;;;;;;18.20;5.53;;;;;;;;;;5086316;28;20135;-67
2022/05/04 06:41:18;;;;;;;15.63;5.60;;;;;;;;;;5080548;28;20063;-68
2022/05/04 06:43:45;;;;;;;13.95;5.80;;;;;;;;;;5083468;28;20058;-68
2022/05/04 06:46:11;;;;;;;13.55;4.75;;;;;;;;;;5085580;28;20028;-69
2022/05/04 06:48:37;;;;;;;15.73;5.35;;;;;;;;;;5087249;28;20067;-69
2022/05/04 06:51:03;;;;;;;12.75;5.85;;;;;;;;;;5082852;28;20040;-69
2022/05/04 06:53:29;;;;;;;13.82;4.40;;;;;;;;;;5084611;28;20036;-69
2022/05/04 06:55:56;;;;;;;11.02;3.88;;;;;;;;;;5085328;28;20028;-69
2022/05/04 06:58:22;;;;;;;18.35;4.30;;;;;;;;;;5086454;28;20032;-68
2022/05/04 07:00:48;;;;;;;20.63;5.25;;;;;;;;;;5081583;28;20097;-68
2022/05/04 07:03:14;;;;;;;12.52;4.18;;;;;;;;;;5089037;28;20094;-68
2022/05/04 07:05:40;;;;;;;15.85;4.53;;;;;;;;;;5088932;28;20064;-68
2022/05/04 07:08:06;;;;;;;21.35;5.78;;;;;;;;;;5089443;28;20074;-69
2022/05/04 07:10:33;;;;;;;17.00;4.20;;;;;;;;;;5085072;28;20040;-68
2022/05/04 07:13:00;;;;;;;11.95;4.95;;;;;;;;;;5081853;28;20024;-68
2022/05/04 07:15:26;;;;;;;16.55;4.38;;;;;;;;;;5083534;28;20024;-68
2022/05/04 07:17:52;;;;;;;9.50;3.10;;;;;;;;;;5085667;28;20553;-69
2022/05/04 07:20:18;;;;;;;11.50;3.38;;;;;;;;;;5082034;28;20133;-69
2022/05/04 07:22:44;;;;;;;14.63;3.67;;;;;;;;;;5082142;28;20360;-69
2022/05/04 07:25:10;;;;;;;11.20;4.25;;;;;;;;;;5080509;28;20119;-69
2022/05/04 07:27:36;;;;;;;13.00;3.28;;;;;;;;;;5085719;28;20036;-69
2022/05/04 07:30:03;;;;;;;17.00;4.32;;;;;;;;;;5081328;28;20040;-67
2022/05/04 07:32:29;;;;;;;14.48;3.22;;;;;;;;;;5084146;28;20019;-68
2022/05/04 07:34:55;;;;;;;12.27;3.30;;;;;;;;;;5079483;28;20307;-68
2022/05/04 07:37:21;;;;;;;12.68;3.85;;;;;;;;;;5086205;28;20258;-68
2022/05/04 07:42:31;;;;;;;11.40;3.85;;;;;;;;;;5084925;28;20101;-67
2022/05/04 07:44:59;;;;;;;14.95;4.85;;;;;;;;;;5082289;28;20075;-67
2022/05/04 07:47:25;;;;;;;14.55;4.85;;;;;;;;;;5082759;28;20350;-68
2022/05/04 07:49:52;;;;;;;11.80;5.25;;;;;;;;;;5076438;28;20073;-69
2022/05/04 07:52:18;;;;;;;13.77;5.50;;;;;;;;;;5080238;28;20051;-69
2022/05/04 07:54:44;;;;;;;14.45;5.40;;;;;;;;;;5080581;28;20032;-69
2022/05/04 07:57:10;;;;;;;16.40;5.30;;;;;;;;;;5063271;28;20021;-69
2022/05/04 07:59:36;;;;;;;17.85;5.72;;;;;;;;;;5067265;28;20465;-69
2022/05/04 08:04:47;;;;;;;19.35;5.80;;;;;;;;;;5079895;28;20054;-69
2022/05/04 08:07:14;;;;;;;17.60;5.95;;;;;;;;;;5088772;28;20024;-68
2022/05/04 08:09:40;;;;;;;15.32;5.90;;;;;;;;;;5088931;28;20070;-69
2022/05/04 08:12:08;;;;;;;14.23;5.80;;;;;;;;;;5088682;28;20054;-69
2022/05/04 08:14:35;;;;;;;11.55;6.10;;;;;;;;;;5088635;28;20086;-68
2022/05/04 08:17:01;;;;;;;13.63;5.65;;;;;;;;;;5088706;28;20509;-69
2022/05/04 08:19:27;;;;;;;16.92;5.70;;;;;;;;;;5088601;28;20067;-69
2022/05/04 08:21:54;;;;;;;16.17;5.65;;;;;;;;;;5087113;28;20136;-69
2022/05/04 08:24:20;;;;;;;13.23;6.05;;;;;;;;;;5088167;28;20040;-69
2022/05/04 08:26:46;;;;;;;15.25;5.63;;;;;;;;;;5086774;28;20036;-69
2022/05/04 08:29:12;;;;;;;11.55;5.97;;;;;;;;;;5088801;28;20035;-69
2022/05/04 08:31:39;;;;;;;30.80;6.88;;;;;;;;;;5087646;28;20032;-69
2022/05/04 08:34:05;;;;;;;14.18;6.07;;;;;;;;;;5088473;28;20020;-69
2022/05/04 08:36:31;;;;;;;13.15;5.55;;;;;;;;;;5088489;28;20038;-69
2022/05/04 08:38:57;;;;;;;15.07;6.53;;;;;;;;;;5088773;28;20036;-69
2022/05/04 08:41:23;;;;;;;11.68;5.78;;;;;;;;;;5088330;28;20048;-70
2022/05/04 08:43:51;;;;;;;11.65;5.88;;;;;;;;;;5088777;28;20055;-70
2022/05/04 08:46:19;;;;;;;13.07;6.10;;;;;;;;;;5089462;28;20104;-71
2022/05/04 08:48:45;;;;;;;17.10;6.90;;;;;;;;;;5089976;28;20432;-70
2022/05/04 08:51:11;;;;;;;20.55;6.60;;;;;;;;;;5089075;28;20027;-68
2022/05/04 08:53:38;;;;;;;13.48;6.60;;;;;;;;;;5089300;28;20024;-69
2022/05/04 08:56:05;;;;;;;15.23;6.35;;;;;;;;;;5088860;28;20026;-69
2022/05/04 08:58:34;;;;;;;12.65;6.30;;;;;;;;;;5088500;28;20028;-69
2022/05/04 09:01:02;;;;;;;12.20;6.00;;;;;;;;;;5088517;28;20102;-69
2022/05/04 09:03:29;;;;;;;12.95;6.10;;;;;;;;;;5088417;28;20031;-69
2022/05/04 09:05:55;;;;;;;15.07;5.95;;;;;;;;;;5087054;28;20032;-69
2022/05/04 09:08:23;;;;;;;13.32;6.18;;;;;;;;;;5088604;28;20050;-70
2022/05/04 09:10:49;;;;;;;17.00;6.90;;;;;;;;;;5087140;28;20035;-67
2022/05/04 09:13:18;;;;;;;19.30;6.47;;;;;;;;;;5088052;28;20016;-69
2022/05/04 09:15:44;;;;;;;17.63;6.10;;;;;;;;;;5087794;28;20035;-70
2022/05/04 09:18:13;;;;;;;14.18;6.70;;;;;;;;;;5088671;28;20032;-68
2022/05/04 09:20:51;;;;;;;15.23;5.68;;;;;;;;;;5088948;28;20020;-68
2022/05/04 09:23:22;;;;;;;13.70;6.40;;;;;;;;;;5089174;28;20111;-69
2022/05/04 09:25:49;;;;;;;18.33;5.80;;;;;;;;;;5088432;28;20497;-70
2022/05/04 09:28:15;;;;;;;16.45;5.40;;;;;;;;;;5088477;28;20035;-70
2022/05/04 09:30:46;;;;;;;13.93;5.85;;;;;;;;;;5088625;28;20032;-69
2022/05/04 09:33:12;;;;;;;12.27;6.10;;;;;;;;;;5088584;28;20713;-70
2022/05/04 09:35:41;;;;;;;13.75;6.90;;;;;;;;;;5087166;28;20035;-70
2022/05/04 09:46:37;;;;;;;12.60;5.65;;;;;;;;;;5073442;28;20105;-70
2022/05/04 09:49:10;;;;;;;13.13;5.57;;;;;;;;;;5092074;28;20040;-70
2022/05/04 09:51:37;;;;;;;12.35;5.80;;;;;;;;;;5091289;28;20032;-70
2022/05/04 09:54:13;;;;;;;17.23;6.75;;;;;;;;;;5092104;28;20081;-69
2022/05/04 09:56:39;;;;;;;23.70;6.40;;;;;;;;;;5089850;28;20111;-69
2022/05/04 09:59:08;;;;;;;19.13;6.40;;;;;;;;;;5091901;28;20100;-69
2022/05/04 10:01:35;;;;;;;14.85;6.18;;;;;;;;;;5090788;28;20068;-70
2022/05/04 10:04:04;;;;;;;12.50;6.90;;;;;;;;;;5091937;28;20024;-70
2022/05/04 10:06:31;;;;;;;19.00;6.93;;;;;;;;;;5091261;28;20047;-68
2022/05/04 10:08:57;;;;;;;15.35;6.63;;;;;;;;;;5090072;28;20377;-69
2022/05/04 10:11:23;;;;;;;17.42;7.28;;;;;;;;;;5089554;28;20516;-70
2022/05/04 10:13:53;;;;;;;17.05;7.57;;;;;;;;;;5090926;28;20474;-70
2022/05/04 10:16:19;;;;;;;12.83;6.57;;;;;;;;;;5089927;28;20511;-69
2022/05/04 10:18:46;;;;;;;18.10;7.20;;;;;;;;;;5089351;28;20039;-69
2022/05/04 10:21:14;;;;;;;13.30;6.60;;;;;;;;;;5090856;28;20035;-70
2022/05/04 10:23:43;;;;;;;15.48;7.03;;;;;;;;;;5091415;28;20036;-69
2022/05/04 10:26:12;;;;;;;11.80;6.35;;;;;;;;;;5090557;28;20485;-70
2022/05/04 10:28:41;;;;;;;18.42;7.35;;;;;;;;;;5090661;28;20114;-70
2022/05/04 10:31:08;;;;;;;16.33;6.75;;;;;;;;;;5088871;28;20055;-68
2022/05/04 10:33:35;;;;;;;14.15;6.60;;;;;;;;;;5089480;28;20448;-68
2022/05/04 10:36:15;;;;;;;14.82;7.38;;;;;;;;;;5091250;28;20346;-71
2022/05/04 10:38:44;;;;;;;14.47;6.90;;;;;;;;;;5090888;28;20134;-70
2022/05/04 10:41:11;;;;;;;13.40;7.47;;;;;;;;;;5089334;28;20302;-70
2022/05/04 10:43:45;;;;;;;14.13;7.30;;;;;;;;;;5091229;28;20119;-70
2022/05/04 10:46:13;;;;;;;16.48;8.20;;;;;;;;;;5091075;28;20135;-70
2022/05/04 10:48:43;;;;;;;19.77;7.55;;;;;;;;;;5091564;28;20074;-69
2022/05/04 10:51:18;;;;;;;12.13;6.88;;;;;;;;;;5091731;28;20026;-70
2022/05/04 10:53:45;;;;;;;19.50;7.10;;;;;;;;;;5091563;28;20378;-69
2022/05/04 10:56:12;;;;;;;13.25;7.13;;;;;;;;;;5090898;28;20035;-69
2022/05/04 10:58:51;;;;;;;13.27;6.82;;;;;;;;;;5090944;28;20043;-69
2022/05/04 11:01:30;;;;;;;19.77;7.97;;;;;;;;;;5090824;28;20086;-70
2022/05/04 11:03:57;;;;;;;14.23;7.70;;;;;;;;;;5091233;28;20169;-70
2022/05/04 11:06:30;;;;;;;15.35;7.15;;;;;;;;;;5091227;28;20063;-70
2022/05/04 11:08:57;;;;;;;13.00;7.18;;;;;;;;;;5090408;28;20036;-69
2022/05/04 11:11:24;;;;;;;14.95;7.32;;;;;;;;;;5090988;28;20103;-70
2022/05/04 11:13:50;;;;;;;15.20;8.18;;;;;;;;;;5091032;28;20104;-70
2022/05/04 11:16:16;;;;;;;12.20;7.03;;;;;;;;;;5089810;28;20097;-69
2022/05/04 11:18:42;;;;;;;13.23;7.20;;;;;;;;;;5091239;28;20036;-70
2022/05/04 11:21:16;;;;;;;13.07;7.45;;;;;;;;;;5091030;28;20031;-70
2022/05/04 11:23:49;;;;;;;17.83;8.13;;;;;;;;;;5089405;28;20123;-68
2022/05/04 11:26:22;;;;;;;16.40;7.53;;;;;;;;;;5076157;28;20090;-69
2022/05/04 11:28:49;;;;;;;16.25;7.32;;;;;;;;;;5070966;28;20103;-70
2022/05/04 11:31:15;;;;;;;14.80;7.03;;;;;;;;;;5070450;28;20029;-69
2022/05/04 11:33:42;;;;;;;17.98;8.00;;;;;;;;;;5069567;28;20048;-71
2022/05/04 11:36:08;;;;;;;22.92;7.45;;;;;;;;;;5068806;28;20036;-69
2022/05/04 11:38:34;;;;;;;17.00;7.38;;;;;;;;;;5087047;28;20058;-69
2022/05/04 11:41:01;;;;;;;14.38;8.10;;;;;;;;;;5088624;28;20580;-69
2022/05/04 11:43:28;;;;;;;16.50;8.75;;;;;;;;;;5088866;28;20031;-69
2022/05/04 11:45:55;;;;;;;17.63;7.85;;;;;;;;;;5089430;28;20512;-70
2022/05/04 11:48:21;;;;;;;17.92;8.00;;;;;;;;;;5087423;28;20043;-69
2022/05/04 11:50:47;;;;;;;14.25;7.18;;;;;;;;;;5089468;28;20028;-70
2022/05/04 11:53:13;;;;;;;17.75;7.78;;;;;;;;;;5088616;28;20024;-68
2022/05/04 11:55:40;;;;;;;13.05;7.20;;;;;;;;;;5087886;28;20031;-69
2022/05/04 11:58:10;;;;;;;15.00;7.55;;;;;;;;;;5088565;28;20024;-70
2022/05/04 12:00:36;;;;;;;17.83;7.47;;;;;;;;;;5086385;28;20382;-68
2022/05/04 12:03:04;;;;;;;13.88;7.50;;;;;;;;;;5088235;28;20048;-70
2022/05/04 12:05:30;;;;;;;14.10;7.47;;;;;;;;;;5087727;28;20032;-71
2022/05/04 12:07:56;;;;;;;11.20;6.85;;;;;;;;;;5088103;28;20073;-70
2022/05/04 12:10:22;;;;;;;14.00;7.32;;;;;;;;;;5088053;28;20100;-70
2022/05/04 12:12:48;;;;;;;17.50;6.70;;;;;;;;;;5089105;28;20024;-69
2022/05/04 12:15:16;;;;;;;14.48;6.72;;;;;;;;;;5088916;28;20587;-70
2022/05/04 12:17:43;;;;;;;14.80;6.85;;;;;;;;;;5088097;28;20035;-69
2022/05/04 12:20:10;;;;;;;14.63;7.43;;;;;;;;;;5088879;28;20016;-70
2022/05/04 12:22:36;;;;;;;14.43;8.02;;;;;;;;;;5088598;28;20035;-69
2022/05/04 12:25:06;;;;;;;12.35;7.15;;;;;;;;;;5091380;28;20080;-70
2022/05/04 12:27:34;;;;;;;19.98;8.88;;;;;;;;;;5108862;28;20095;-70
2022/05/04 12:35:31;;;;;;;14.20;7.07;;;;;;;;;;5109508;28;20089;-70
2022/05/04 12:37:58;;;;;;;15.00;6.22;;;;;;;;;;5103905;28;20092;-69
2022/05/04 12:40:26;;;;;;;13.98;7.13;;;;;;;;;;5088352;28;20492;-69
2022/05/04 12:42:53;;;;;;;18.77;7.90;;;;;;;;;;5089174;28;20024;-69
2022/05/04 12:45:19;;;;;;;12.02;7.10;;;;;;;;;;5089058;28;20501;-68
2022/05/04 12:47:45;;;;;;;13.23;7.43;;;;;;;;;;5087610;28;20028;-69
2022/05/04 12:50:12;;;;;;;15.55;7.75;;;;;;;;;;5088900;28;20032;-70
2022/05/04 12:52:38;;;;;;;15.57;7.97;;;;;;;;;;5088671;28;20055;-70
2022/05/04 12:55:05;;;;;;;14.23;8.32;;;;;;;;;;5089176;28;20023;-70
2022/05/04 12:57:31;;;;;;;22.52;9.35;;;;;;;;;;5088674;28;20509;-70
2022/05/04 12:59:57;;;;;;;17.08;8.15;;;;;;;;;;5088535;28;20085;-69
2022/05/04 13:02:23;;;;;;;16.60;8.20;;;;;;;;;;5088500;28;20457;-70
2022/05/04 13:04:49;;;;;;;18.02;8.73;;;;;;;;;;5089197;28;20087;-69
2022/05/04 13:07:15;;;;;;;16.50;8.43;;;;;;;;;;5088826;28;20032;-68
2022/05/04 13:09:42;;;;;;;15.30;9.57;;;;;;;;;;5088725;28;20097;-69
2022/05/04 13:12:11;;;;;;;17.80;9.95;;;;;;;;;;5088676;28;20306;-69
2022/05/04 13:14:38;;;;;;;17.67;9.40;;;;;;;;;;5089125;28;20073;-68
2022/05/04 13:17:04;;;;;;;17.45;8.82;;;;;;;;;;5089383;28;20028;-68
2022/05/04 13:19:31;;;;;;;20.45;9.63;;;;;;;;;;5091725;28;20115;-69
2022/05/04 13:21:57;;;;;;;17.20;9.82;;;;;;;;;;5092647;28;20070;-69
2022/05/04 13:24:23;;;;;;;22.55;10.13;;;;;;;;;;5093109;28;20164;-69
2022/05/04 13:26:49;;;;;;;22.50;9.60;;;;;;;;;;5087240;28;20040;-70
2022/05/04 13:29:15;;;;;;;23.77;9.85;;;;;;;;;;5085714;28;20036;-70
2022/05/04 13:31:41;;;;;;;18.08;9.13;;;;;;;;;;5091525;28;20109;-70
2022/05/04 13:34:07;;;;;;;20.08;9.77;;;;;;;;;;5087546;28;20374;-69
2022/05/04 13:36:33;;;;;;;16.92;9.70;;;;;;;;;;5085299;28;20085;-70
2022/05/04 13:38:59;;;;;;;17.48;9.07;;;;;;;;;;5089698;28;20178;-68
2022/05/04 13:41:25;;;;;;;15.15;9.00;;;;;;;;;;5088161;28;20089;-69
2022/05/04 13:43:52;;;;;;;19.92;9.95;;;;;;;;;;5086325;28;20063;-70
2022/05/04 13:46:18;;;;;;;17.42;8.90;;;;;;;;;;5090994;28;20394;-71
2022/05/04 13:48:45;;;;;;;19.02;9.73;;;;;;;;;;5088756;28;20552;-70
2022/05/04 13:53:56;;;;;;;23.13;10.23;;;;;;;;;;5086804;28;20173;-70
2022/05/04 13:56:23;;;;;;;19.95;10.55;;;;;;;;;;5088514;28;20073;-70
2022/05/04 13:58:49;;;;;;;15.38;9.00;;;;;;;;;;5071126;28;20020;-70
2022/05/04 14:01:15;;;;;;;16.90;9.60;;;;;;;;;;5089745;28;20035;-70
2022/05/04 14:03:41;;;;;;;17.17;9.50;;;;;;;;;;5089059;28;20085;-70
2022/05/04 14:06:07;;;;;;;16.20;9.02;;;;;;;;;;5090955;28;20103;-68
2022/05/04 14:08:34;;;;;;;16.17;8.55;;;;;;;;;;5088240;28;20043;-68
2022/05/04 14:11:00;;;;;;;24.55;10.05;;;;;;;;;;5085356;28;20032;-69
2022/05/04 14:13:29;;;;;;;23.13;9.38;;;;;;;;;;5089835;28;20501;-70
2022/05/04 14:15:56;;;;;;;14.10;8.35;;;;;;;;;;5083009;28;20032;-70
2022/05/04 14:18:23;;;;;;;23.10;9.32;;;;;;;;;;5086226;28;20161;-70
2022/05/04 14:20:50;;;;;;;19.77;9.75;;;;;;;;;;5087333;28;20040;-70
2022/05/04 14:23:16;;;;;;;17.23;9.07;;;;;;;;;;5083923;28;20591;-70
2022/05/04 14:25:42;;;;;;;21.27;9.88;;;;;;;;;;5083887;28;20130;-70
2022/05/04 14:28:08;;;;;;;17.77;9.13;;;;;;;;;;5088335;28;20266;-71
2022/05/04 14:30:39;;;;;;;14.90;8.05;;;;;;;;;;5085780;28;20485;-71
2022/05/04 14:33:07;;;;;;;34.85;8.80;;;;;;;;;;5089460;28;20020;-70
2022/05/04 14:35:33;;;;;;;16.48;7.55;;;;;;;;;;5089827;28;20024;-70
2022/05/04 14:37:59;;;;;;;16.30;7.85;;;;;;;;;;5088430;28;20111;-71
2022/05/04 14:40:25;;;;;;;18.67;7.95;;;;;;;;;;5076770;28;20155;-72
2022/05/04 14:42:51;;;;;;;19.55;8.32;;;;;;;;;;5084460;28;20490;-71
2022/05/04 14:45:18;;;;;;;16.83;7.38;;;;;;;;;;5084596;28;20283;-70
2022/05/04 14:47:44;;;;;;;15.32;7.03;;;;;;;;;;5083906;28;20047;-70
2022/05/04 14:50:10;;;;;;;25.85;7.53;;;;;;;;;;5081450;28;20530;-70
2022/05/04 14:52:36;;;;;;;15.93;7.10;;;;;;;;;;5086831;28;20038;-71
2022/05/04 14:55:02;;;;;;;14.82;6.82;;;;;;;;;;5081076;28;20032;-70
2022/05/04 14:57:28;;;;;;;12.95;7.18;;;;;;;;;;5083108;28;20029;-70
2022/05/04 14:59:54;;;;;;;11.85;6.70;;;;;;;;;;5088828;28;20474;-69
2022/05/04 15:02:20;;;;;;;21.23;7.80;;;;;;;;;;5089854;28;20562;-69
2022/05/04 15:05:02;;;;;;;17.73;7.45;;;;;;;;;;5085360;28;20032;-71